createdAt,value
2019-02-23T00:01:54.330Z,2.20
2019-02-23T00:04:22.993Z,2.00
2019-02-23T00:06:51.728Z,1.90
2019-02-23T00:09:20.900Z,2.20
2019-02-23T00:11:49.685Z,2.12
2019-02-23T00:14:18.350Z,1.93
2019-02-23T00:16:46.993Z,1.90
2019-02-23T00:19:24.435Z,2.20
2019-02-23T00:21:46.062Z,2.40
2019-02-23T00:24:14.709Z,2.47
2019-02-23T00:26:43.370Z,2.40
2019-02-23T00:29:12.018Z,2.13
2019-02-23T00:31:40.668Z,2.17
2019-02-23T00:34:09.320Z,2.30
2019-02-23T00:36:37.971Z,2.40
2019-02-23T00:39:07.592Z,2.70
2019-02-23T00:41:37.930Z,2.33
2019-02-23T00:44:06.563Z,2.10
2019-02-23T00:46:35.250Z,2.22
2019-02-23T00:49:03.964Z,2.10
2019-02-23T00:51:32.631Z,2.30
2019-02-23T00:54:01.259Z,2.17
2019-02-23T00:56:29.941Z,2.02
2019-02-23T00:58:58.608Z,2.37
2019-02-23T01:01:27.343Z,2.30
2019-02-23T01:03:55.989Z,2.20
2019-02-23T01:06:24.633Z,2.15
2019-02-23T01:08:53.361Z,2.10
2019-02-23T01:11:22.005Z,2.30
2019-02-23T01:13:50.674Z,2.30
2019-02-23T01:16:19.322Z,2.42
2019-02-23T01:18:48.061Z,2.40
2019-02-23T01:21:16.739Z,2.37
2019-02-23T01:23:45.388Z,2.17
2019-02-23T01:26:14.047Z,2.25
2019-02-23T01:28:42.767Z,2.50
2019-02-23T01:31:11.501Z,2.60
2019-02-23T01:33:40.318Z,2.50
2019-02-23T01:36:09.044Z,2.60
2019-02-23T01:38:37.702Z,2.30
2019-02-23T01:41:06.370Z,2.40
2019-02-23T01:43:35.142Z,2.40
2019-02-23T01:46:03.783Z,2.40
2019-02-23T01:48:32.416Z,2.57
2019-02-23T01:51:01.049Z,2.57
2019-02-23T01:53:29.807Z,2.50
2019-02-23T01:55:58.534Z,2.67
2019-02-23T01:58:27.206Z,2.30
2019-02-23T02:00:55.859Z,2.17
2019-02-23T02:03:24.963Z,2.22
2019-02-23T02:05:53.732Z,2.20
2019-02-23T02:08:22.550Z,2.30
2019-02-23T02:10:51.222Z,2.57
2019-02-23T02:13:19.869Z,2.20
2019-02-23T02:15:49.605Z,2.30
2019-02-23T02:18:18.395Z,2.00
2019-02-23T02:20:47.142Z,2.30
2019-02-23T02:23:15.792Z,2.40
2019-02-23T02:25:44.536Z,2.33
2019-02-23T02:28:13.233Z,2.13
2019-02-23T02:30:41.876Z,2.37
2019-02-23T02:33:10.619Z,2.40
2019-02-23T02:35:39.329Z,2.27
2019-02-23T02:38:08.075Z,2.50
2019-02-23T02:40:36.715Z,2.43
2019-02-23T02:43:05.382Z,2.50
2019-02-23T02:45:34.038Z,2.50
2019-02-23T02:48:02.767Z,2.30
2019-02-23T02:50:31.512Z,2.30
2019-02-23T02:53:00.223Z,2.33
2019-02-23T02:55:28.963Z,2.43
2019-02-23T02:57:57.646Z,2.20
2019-02-23T03:00:26.347Z,2.50
2019-02-23T03:02:55.079Z,2.20
2019-02-23T03:05:23.818Z,2.30
2019-02-23T03:07:52.469Z,2.60
2019-02-23T03:10:21.140Z,2.50
2019-02-23T03:12:49.929Z,2.67
2019-02-23T03:15:18.584Z,2.27
2019-02-23T03:17:47.314Z,2.70
2019-02-23T03:20:15.970Z,2.10
2019-02-23T03:22:44.706Z,2.97
2019-02-23T03:25:13.465Z,2.50
2019-02-23T03:27:42.097Z,2.63
2019-02-23T03:30:11.117Z,2.62
2019-02-23T03:32:40.040Z,2.97
2019-02-23T03:35:09.248Z,2.63
2019-02-23T03:37:38.331Z,2.70
2019-02-23T03:40:08.606Z,2.57
2019-02-23T03:42:37.369Z,2.63
2019-02-23T03:45:06.156Z,2.42
2019-02-23T03:47:34.819Z,2.40
2019-02-23T03:50:03.644Z,2.63
2019-02-23T03:52:32.303Z,2.67
2019-02-23T03:55:01.045Z,2.58
2019-02-23T03:57:32.032Z,2.70
2019-02-23T04:00:04.214Z,2.63
2019-02-23T04:02:33.950Z,2.90
2019-02-23T04:05:02.614Z,2.62
2019-02-23T04:07:31.451Z,3.00
2019-02-23T04:10:00.373Z,2.30
2019-02-23T04:12:29.168Z,2.57
2019-02-23T04:14:57.833Z,2.33
2019-02-23T04:17:26.478Z,2.50
2019-02-23T04:19:55.159Z,2.60
2019-02-23T04:22:23.862Z,2.60
2019-02-23T04:24:52.570Z,2.73
2019-02-23T04:27:21.226Z,2.42
2019-02-23T04:29:49.958Z,2.60
2019-02-23T04:32:18.590Z,2.70
2019-02-23T04:34:47.311Z,2.63
2019-02-23T04:37:16.016Z,2.50
2019-02-23T04:39:44.764Z,2.80
2019-02-23T04:42:13.532Z,2.50
2019-02-23T04:44:42.218Z,2.60
2019-02-23T04:47:10.887Z,2.50
2019-02-23T04:49:40.602Z,2.70
2019-02-23T04:52:09.350Z,2.70
2019-02-23T04:54:38.646Z,2.52
2019-02-23T04:57:07.323Z,2.70
2019-02-23T04:59:37.875Z,2.50
2019-02-23T05:02:06.560Z,2.97
2019-02-23T05:04:35.202Z,2.83
2019-02-23T05:07:03.869Z,2.70
2019-02-23T05:09:32.624Z,2.27
2019-02-23T05:12:01.342Z,2.60
2019-02-23T05:14:30.064Z,2.60
2019-02-23T05:16:58.742Z,2.47
2019-02-23T05:19:27.422Z,2.60
2019-02-23T05:21:56.076Z,2.70
2019-02-23T05:24:24.722Z,2.73
2019-02-23T05:26:53.370Z,2.67
2019-02-23T05:29:22.109Z,2.80
2019-02-23T05:31:51.764Z,2.50
2019-02-23T05:34:20.414Z,2.87
2019-02-23T05:36:49.068Z,3.00
2019-02-23T05:39:17.959Z,2.80
2019-02-23T05:41:46.676Z,2.70
2019-02-23T05:44:15.324Z,2.80
2019-02-23T05:46:44.030Z,2.73
2019-02-23T05:49:12.779Z,2.55
2019-02-23T05:51:41.495Z,2.80
2019-02-23T05:54:11.227Z,2.60
2019-02-23T05:56:39.987Z,2.33
2019-02-23T05:59:08.639Z,2.60
2019-02-23T06:01:37.407Z,3.10
2019-02-23T06:04:06.280Z,2.97
2019-02-23T06:06:34.942Z,3.00
2019-02-23T06:09:04.429Z,3.08
2019-02-23T06:11:33.191Z,2.98
2019-02-23T06:14:01.926Z,2.90
2019-02-23T06:16:30.584Z,3.00
2019-02-23T06:18:59.255Z,3.03
2019-02-23T06:21:27.975Z,2.90
2019-02-23T06:23:57.828Z,3.10
2019-02-23T06:26:26.496Z,2.70
2019-02-23T06:28:55.138Z,3.17
2019-02-23T06:31:23.844Z,3.07
2019-02-23T06:33:52.501Z,3.08
2019-02-23T06:36:21.147Z,3.20
2019-02-23T06:38:49.877Z,2.92
2019-02-23T06:41:18.493Z,3.00
2019-02-23T06:43:47.197Z,3.03
2019-02-23T06:46:15.885Z,3.37
2019-02-23T06:48:44.545Z,3.20
2019-02-23T06:51:13.211Z,3.97
2019-02-23T06:53:41.948Z,3.50
2019-02-23T06:56:10.741Z,3.47
2019-02-23T06:58:39.634Z,3.57
2019-02-23T07:01:08.300Z,3.60
2019-02-23T07:03:37.110Z,3.55
2019-02-23T07:06:06.012Z,3.53
2019-02-23T07:08:34.826Z,3.43
2019-02-23T07:11:03.579Z,3.90
2019-02-23T07:13:32.271Z,3.63
2019-02-23T07:16:00.938Z,3.80
2019-02-23T07:18:30.674Z,3.97
2019-02-23T07:20:59.440Z,3.87
2019-02-23T07:23:28.134Z,3.93
2019-02-23T07:25:56.883Z,3.63
2019-02-23T07:28:25.687Z,4.63
2019-02-23T07:30:54.475Z,4.83
2019-02-23T07:33:32.348Z,5.23
2019-02-23T07:35:53.683Z,4.37
2019-02-23T07:38:23.332Z,5.08
2019-02-23T07:40:52.086Z,4.70
2019-02-23T07:43:20.802Z,4.90
2019-02-23T07:45:49.426Z,4.80
2019-02-23T07:48:18.178Z,4.70
2019-02-23T07:50:46.925Z,4.90
2019-02-23T07:53:15.650Z,4.70
2019-02-23T07:55:44.411Z,5.27
2019-02-23T07:58:13.161Z,5.03
2019-02-23T08:00:41.949Z,4.83
2019-02-23T08:03:10.633Z,4.90
2019-02-23T08:05:39.283Z,4.80
2019-02-23T08:08:08.128Z,5.43
2019-02-23T08:10:36.938Z,5.23
2019-02-23T08:13:05.672Z,5.07
2019-02-23T08:15:34.439Z,5.00
2019-02-23T08:18:03.290Z,5.00
2019-02-23T08:20:32.198Z,5.13
2019-02-23T08:23:00.914Z,5.40
2019-02-23T08:25:29.581Z,5.43
2019-02-23T08:27:59.270Z,5.23
2019-02-23T08:30:27.946Z,4.67
2019-02-23T08:32:56.622Z,4.93
2019-02-23T08:35:25.282Z,4.90
2019-02-23T08:37:53.937Z,4.70
2019-02-23T08:40:22.605Z,5.67
2019-02-23T08:42:51.342Z,4.30
2019-02-23T08:45:19.987Z,4.87
2019-02-23T08:47:48.749Z,4.97
2019-02-23T08:50:17.462Z,5.00
2019-02-23T08:52:49.907Z,4.63
2019-02-23T08:55:16.634Z,5.20
2019-02-23T08:57:45.413Z,4.43
2019-02-23T09:00:14.774Z,4.67
2019-02-23T09:02:43.521Z,5.10
2019-02-23T09:05:12.203Z,4.50
2019-02-23T09:07:40.941Z,4.97
2019-02-23T09:10:10.301Z,4.80
2019-02-23T09:12:39.001Z,4.50
2019-02-23T09:15:07.913Z,4.27
2019-02-23T09:17:36.658Z,4.20
2019-02-23T09:20:05.452Z,4.40
2019-02-23T09:22:37.241Z,4.47
2019-02-23T09:25:06.299Z,3.80
2019-02-23T09:27:34.975Z,4.03
2019-02-23T09:30:03.892Z,3.83
2019-02-23T09:32:33.831Z,4.07
2019-02-23T09:35:02.638Z,4.10
2019-02-23T09:37:32.317Z,4.30
2019-02-23T09:40:01.086Z,3.90
2019-02-23T09:42:29.822Z,3.93
2019-02-23T09:44:58.592Z,4.07
2019-02-23T09:47:27.323Z,3.87
2019-02-23T09:49:56.119Z,3.73
2019-02-23T09:52:24.868Z,3.80
2019-02-23T09:54:53.652Z,3.87
2019-02-23T09:57:22.354Z,3.67
2019-02-23T09:59:51.113Z,3.77
2019-02-23T10:02:19.807Z,3.63
2019-02-23T10:04:48.492Z,3.47
2019-02-23T10:07:17.243Z,3.47
2019-02-23T10:09:46.079Z,3.47
2019-02-23T10:12:14.994Z,3.77
2019-02-23T10:14:44.082Z,3.72
2019-02-23T10:17:12.994Z,3.43
2019-02-23T10:19:41.695Z,3.10
2019-02-23T10:22:11.318Z,3.40
2019-02-23T10:24:40.029Z,4.03
2019-02-23T10:27:08.862Z,3.70
2019-02-23T10:29:37.560Z,3.60
2019-02-23T10:32:06.223Z,3.20
2019-02-23T10:34:34.882Z,3.60
2019-02-23T10:37:03.655Z,3.90
2019-02-23T10:39:32.322Z,3.53
2019-02-23T10:42:01.109Z,3.77
2019-02-23T10:44:29.847Z,3.52
2019-02-23T10:46:58.587Z,3.70
2019-02-23T10:49:27.335Z,3.23
2019-02-23T10:51:56.039Z,3.50
2019-02-23T10:54:25.830Z,3.80
2019-02-23T10:56:54.498Z,4.13
2019-02-23T10:59:23.261Z,3.53
2019-02-23T11:01:52.945Z,3.70
2019-02-23T11:04:21.787Z,3.97
2019-02-23T11:06:50.430Z,3.72
2019-02-23T11:09:27.753Z,3.70
2019-02-23T11:11:56.419Z,3.80
2019-02-23T11:14:25.117Z,4.13
2019-02-23T11:16:54.902Z,3.60
2019-02-23T11:19:23.549Z,4.00
2019-02-23T11:21:52.291Z,3.70
2019-02-23T11:24:21.023Z,4.23
2019-02-23T11:26:49.748Z,3.80
2019-02-23T11:29:18.454Z,4.13
2019-02-23T11:31:47.190Z,3.50
2019-02-23T11:34:15.833Z,3.73
2019-02-23T11:36:44.509Z,3.75
2019-02-23T11:39:13.316Z,3.70
2019-02-23T11:41:42.091Z,4.00
2019-02-23T11:44:10.775Z,3.63
2019-02-23T11:46:39.447Z,3.20
2019-02-23T11:49:08.373Z,3.73
2019-02-23T11:51:37.149Z,3.90
2019-02-23T11:54:05.951Z,3.37
2019-02-23T11:56:34.663Z,3.90
2019-02-23T11:59:03.393Z,4.07
2019-02-23T12:01:33.152Z,3.73
2019-02-23T12:04:01.866Z,3.20
2019-02-23T12:06:30.592Z,3.50
2019-02-23T12:08:59.282Z,3.63
2019-02-23T12:11:28.019Z,3.70
2019-02-23T12:13:56.736Z,3.70
2019-02-23T12:16:25.418Z,3.93
2019-02-23T12:18:54.182Z,4.03
2019-02-23T12:21:22.846Z,4.25
2019-02-23T12:23:51.598Z,3.98
2019-02-23T12:26:20.310Z,4.07
2019-02-23T12:28:49.066Z,4.30
2019-02-23T12:31:17.769Z,4.33
2019-02-23T12:33:46.473Z,4.90
2019-02-23T12:36:15.250Z,4.67
2019-02-23T12:38:43.922Z,4.10
2019-02-23T12:41:12.713Z,4.30
2019-02-23T12:43:41.428Z,3.47
2019-02-23T12:46:10.219Z,3.47
2019-02-23T12:48:38.920Z,3.80
2019-02-23T12:51:07.579Z,3.77
2019-02-23T12:53:37.258Z,3.55
2019-02-23T12:56:05.957Z,4.20
2019-02-23T12:58:34.628Z,3.92
2019-02-23T13:01:03.294Z,3.80
2019-02-23T13:03:31.978Z,3.73
2019-02-23T13:06:01.645Z,3.97
2019-02-23T13:08:49.512Z,3.72
2019-02-23T13:11:18.163Z,4.07
2019-02-23T13:13:51.556Z,3.93
2019-02-23T13:16:32.469Z,3.75
2019-02-23T13:19:18.994Z,3.90
2019-02-23T13:21:53.774Z,4.40
2019-02-23T13:24:50.508Z,3.90
2019-02-23T13:27:28.647Z,3.55
2019-02-23T13:30:22.351Z,3.98
2019-02-23T13:33:12.991Z,3.93
2019-02-23T13:35:59.231Z,3.85
2019-02-23T13:38:47.071Z,3.70
2019-02-23T13:41:43.942Z,4.20
2019-02-23T13:44:19.401Z,3.50
2019-02-23T13:46:53.939Z,3.70
2019-02-23T13:49:39.958Z,4.30
2019-02-23T13:52:31.174Z,3.70
2019-02-23T13:55:17.852Z,4.58
2019-02-23T13:57:57.720Z,3.92
2019-02-23T14:00:39.587Z,3.98
2019-02-23T14:03:24.053Z,4.20
2019-02-23T14:06:17.975Z,4.30
2019-02-23T14:09:05.911Z,4.00
2019-02-23T14:12:01.380Z,4.63
2019-02-23T14:14:42.701Z,3.67
2019-02-23T14:17:14.316Z,4.50
2019-02-23T14:19:50.564Z,4.67
2019-02-23T14:22:37.080Z,4.30
2019-02-23T14:25:43.252Z,4.70
2019-02-23T14:28:40.459Z,4.62
2019-02-23T14:31:22.521Z,4.37
2019-02-23T14:34:22.585Z,4.37
2019-02-23T14:37:10.472Z,5.13
2019-02-23T14:40:13.834Z,4.33
2019-02-23T14:42:50.833Z,4.50
2019-02-23T14:45:38.744Z,4.78
2019-02-23T14:48:26.743Z,4.20
2019-02-23T14:51:07.376Z,4.40
2019-02-23T14:53:57.979Z,4.50
2019-02-23T14:56:40.341Z,4.10
2019-02-23T14:59:28.238Z,4.12
2019-02-23T15:02:07.340Z,4.92
2019-02-23T15:05:04.202Z,4.47
2019-02-23T15:07:38.677Z,4.45
2019-02-23T15:10:27.556Z,4.30
2019-02-23T15:13:06.539Z,4.60
2019-02-23T15:15:55.366Z,4.50
2019-02-23T15:18:36.235Z,4.40
2019-02-23T15:21:12.705Z,3.83
2019-02-23T15:23:53.331Z,4.83
2019-02-23T15:26:40.376Z,4.77
2019-02-23T15:29:25.948Z,4.17
2019-02-23T15:32:31.768Z,4.33
2019-02-23T15:35:22.429Z,4.37
2019-02-23T15:37:58.713Z,4.80
2019-02-23T15:40:40.872Z,5.10
2019-02-23T15:43:28.222Z,4.83
2019-02-23T15:46:09.163Z,4.97
2019-02-23T15:49:03.146Z,4.80
2019-02-23T15:51:31.983Z,4.70
2019-02-23T15:54:00.711Z,5.07
2019-02-23T15:56:29.423Z,4.62
2019-02-23T15:58:58.248Z,4.85
2019-02-23T16:01:26.942Z,4.15
2019-02-23T16:03:55.716Z,4.47
2019-02-23T16:06:24.362Z,4.22
2019-02-23T16:08:53.156Z,4.22
2019-02-23T16:11:21.994Z,4.78
2019-02-23T16:13:50.683Z,4.57
2019-02-23T16:16:19.434Z,4.87
2019-02-23T16:18:48.192Z,4.78
2019-02-23T16:21:16.922Z,5.00
2019-02-23T16:23:45.623Z,4.47
2019-02-23T16:26:14.434Z,4.90
2019-02-23T16:28:43.322Z,4.42
2019-02-23T16:31:12.020Z,4.47
2019-02-23T16:33:40.703Z,4.90
2019-02-23T16:36:09.436Z,5.03
2019-02-23T16:38:38.120Z,4.70
2019-02-23T16:41:06.788Z,5.08
2019-02-23T16:43:35.488Z,4.30
2019-02-23T16:46:04.346Z,4.42
2019-02-23T16:48:33.175Z,4.90
2019-02-23T16:51:01.997Z,4.72
2019-02-23T16:53:30.713Z,4.72
2019-02-23T16:55:59.888Z,4.93
2019-02-23T16:58:28.708Z,4.75
2019-02-23T17:00:57.507Z,4.58
2019-02-23T17:03:26.348Z,5.05
2019-02-23T17:05:55.068Z,5.47
2019-02-23T17:08:23.881Z,5.20
2019-02-23T17:10:52.658Z,4.63
2019-02-23T17:13:21.461Z,4.70
2019-02-23T17:15:50.173Z,5.50
2019-02-23T17:18:18.887Z,5.20
2019-02-23T17:20:47.770Z,4.70
2019-02-23T17:23:16.744Z,5.20
2019-02-23T17:25:45.434Z,5.15
2019-02-23T17:28:15.209Z,5.17
2019-02-23T17:30:43.952Z,5.20
2019-02-23T17:33:12.645Z,5.72
2019-02-23T17:35:41.384Z,5.20
2019-02-23T17:38:16.043Z,5.45
2019-02-23T17:40:40.642Z,5.25
2019-02-23T17:43:09.432Z,5.17
2019-02-23T17:45:38.287Z,5.53
2019-02-23T17:48:07.046Z,5.25
2019-02-23T17:50:35.899Z,5.75
2019-02-23T17:53:04.812Z,5.75
2019-02-23T17:55:33.623Z,5.50
2019-02-23T17:58:02.394Z,5.03
2019-02-23T18:00:31.312Z,6.00
2019-02-23T18:03:00.073Z,5.33
2019-02-23T18:05:28.785Z,5.63
2019-02-23T18:07:57.561Z,5.50
2019-02-23T18:10:26.343Z,5.58
2019-02-23T18:12:55.097Z,5.25
2019-02-23T18:15:23.784Z,5.35
2019-02-23T18:17:52.499Z,5.12
2019-02-23T18:20:21.254Z,4.78
2019-02-23T18:22:50.061Z,5.58
2019-02-23T18:25:18.790Z,4.95
2019-02-23T18:27:47.666Z,5.53
2019-02-23T18:30:16.449Z,5.40
2019-02-23T18:32:45.341Z,6.03
2019-02-23T18:35:15.196Z,5.92
2019-02-23T18:37:44.074Z,5.42
2019-02-23T18:40:12.863Z,5.28
2019-02-23T18:42:41.579Z,5.50
2019-02-23T18:45:10.332Z,5.42
2019-02-23T18:47:39.129Z,6.15
2019-02-23T18:50:08.187Z,5.28
2019-02-23T18:52:37.118Z,5.37
2019-02-23T18:55:06.246Z,5.30
2019-02-23T18:57:35.467Z,5.42
2019-02-23T19:00:04.462Z,5.27
2019-02-23T19:02:34.910Z,5.03
2019-02-23T19:05:03.788Z,6.08
2019-02-23T19:07:32.849Z,5.58
2019-02-23T19:10:01.557Z,4.80
2019-02-23T19:12:30.665Z,5.55
2019-02-23T19:14:59.570Z,5.33
2019-02-23T19:17:28.337Z,5.03
2019-02-23T19:19:57.159Z,5.17
2019-02-23T19:22:25.914Z,5.33
2019-02-23T19:24:54.759Z,5.30
2019-02-23T19:27:24.526Z,5.60
2019-02-23T19:29:53.321Z,5.42
2019-02-23T19:32:22.213Z,5.07
2019-02-23T19:34:51.111Z,5.20
2019-02-23T19:37:19.864Z,5.47
2019-02-23T19:39:48.655Z,5.00
2019-02-23T19:42:17.436Z,5.23
2019-02-23T19:44:46.182Z,5.40
2019-02-23T19:47:16.667Z,5.35
2019-02-23T19:49:45.558Z,5.83
2019-02-23T19:52:18.450Z,6.30
2019-02-23T19:54:47.420Z,5.87
2019-02-23T19:57:16.190Z,6.30
2019-02-23T19:59:45.144Z,6.58
2019-02-23T20:02:13.849Z,5.50
2019-02-23T20:04:42.682Z,6.40
2019-02-23T20:07:11.513Z,6.30
2019-02-23T20:09:40.348Z,6.47
2019-02-23T20:12:09.103Z,6.00
2019-02-23T20:14:37.967Z,6.28
2019-02-23T20:17:06.673Z,6.20
2019-02-23T20:19:35.399Z,6.33
2019-02-23T20:22:04.208Z,5.95
2019-02-23T20:24:32.921Z,6.47
2019-02-23T20:27:01.666Z,6.17
2019-02-23T20:29:30.511Z,6.35
2019-02-23T20:31:59.359Z,5.85
2019-02-23T20:34:28.209Z,5.92
2019-02-23T20:36:57.085Z,5.60
2019-02-23T20:39:25.950Z,5.78
2019-02-23T20:41:54.954Z,6.42
2019-02-23T20:44:23.760Z,6.33
2019-02-23T20:46:52.592Z,5.92
2019-02-23T20:49:21.573Z,6.10
2019-02-23T20:51:50.388Z,5.62
2019-02-23T20:54:19.212Z,5.78
2019-02-23T20:56:47.863Z,6.20
2019-02-23T20:59:16.823Z,6.00
2019-02-23T21:01:45.490Z,5.80
2019-02-23T21:04:14.297Z,6.15
2019-02-23T21:06:43.171Z,5.40
2019-02-23T21:09:11.950Z,6.33
2019-02-23T21:11:40.772Z,6.53
2019-02-23T21:14:09.530Z,5.67
2019-02-23T21:16:38.301Z,6.22
2019-02-23T21:19:07.095Z,6.05
2019-02-23T21:21:35.795Z,5.95
2019-02-23T21:24:04.537Z,6.00
2019-02-23T21:26:33.250Z,6.10
2019-02-23T21:29:01.921Z,5.87
2019-02-23T21:31:30.574Z,6.10
2019-02-23T21:33:59.248Z,5.80
2019-02-23T21:36:28.150Z,6.10
2019-02-23T21:38:56.876Z,6.33
2019-02-23T21:41:25.533Z,5.60
2019-02-23T21:43:54.226Z,6.03
2019-02-23T21:46:22.971Z,5.95
2019-02-23T21:48:51.660Z,6.50
2019-02-23T21:51:20.409Z,6.45
2019-02-23T21:53:49.354Z,6.20
2019-02-23T21:56:18.054Z,6.15
2019-02-23T21:58:46.924Z,6.83
2019-02-23T22:01:15.623Z,6.30
2019-02-23T22:03:44.493Z,6.22
2019-02-23T22:06:14.427Z,7.08
2019-02-23T22:08:43.136Z,6.35
2019-02-23T22:11:11.943Z,6.37
2019-02-23T22:13:40.664Z,6.20
2019-02-23T22:16:09.288Z,6.85
2019-02-23T22:18:38.010Z,6.95
2019-02-23T22:21:06.710Z,6.28
2019-02-23T22:23:35.316Z,6.97
2019-02-23T22:26:04.027Z,7.37
2019-02-23T22:28:32.646Z,6.50
2019-02-23T22:31:01.423Z,7.22
2019-02-23T22:33:30.121Z,6.67
2019-02-23T22:35:58.831Z,6.35
2019-02-23T22:38:27.521Z,6.15
2019-02-23T22:40:56.215Z,6.80
2019-02-23T22:43:24.994Z,6.58
2019-02-23T22:45:53.739Z,6.90
2019-02-23T22:48:22.542Z,7.05
2019-02-23T22:50:51.204Z,6.72
2019-02-23T22:53:19.891Z,7.08
2019-02-23T22:55:48.683Z,6.90
2019-02-23T22:58:17.390Z,6.97
2019-02-23T23:01:06.231Z,6.90
2019-02-23T23:03:36.881Z,7.17
2019-02-23T23:06:05.639Z,6.95
2019-02-23T23:08:34.342Z,6.62
2019-02-23T23:11:03.033Z,6.85
2019-02-23T23:13:31.696Z,7.40
2019-02-23T23:16:00.423Z,6.85
2019-02-23T23:18:28.970Z,7.08
2019-02-23T23:20:57.534Z,6.95
2019-02-23T23:23:26.138Z,6.72
2019-02-23T23:25:54.804Z,7.53
2019-02-23T23:28:23.439Z,7.40
2019-02-23T23:30:52.024Z,7.78
2019-02-23T23:33:20.661Z,6.70
2019-02-23T23:35:49.373Z,7.37
2019-02-23T23:38:18.044Z,7.00
2019-02-23T23:40:46.711Z,7.50
2019-02-23T23:43:15.349Z,7.58
2019-02-23T23:45:43.971Z,7.17
2019-02-23T23:48:12.620Z,7.83
2019-02-23T23:50:41.173Z,7.78
2019-02-23T23:53:09.816Z,7.67
2019-02-23T23:55:38.450Z,7.55
2019-02-23T23:58:07.168Z,7.83
